Flight Track Log - Related Links

Times and Time Zones

All times are in EDT time to prevent confusion due to time zone crossing. See the N600TR flight status page for this flight to view local times or setup timezone preferences in your user account.

Time Position Orientation Groundspeed Altitude Reporting Facility
EDT Latitude Longitude Course Direction KTS MPH feet Rate Location/Type
Tue 12:14:27 PM 33.6333 -84.4000 85° East 158 182 2,300  Level Atlanta TRACON
Tue 12:15:27 PM 33.6167 -84.3167 103° East 269 310 3,700 2,053 Climbing Atlanta TRACON
Tue 12:16:21 PM 33.6000 -84.2333 103° East 272 313 6,200 2,511 Climbing Atlanta TRACON
Tue 12:17:00 PM 33.6183 -83.9087 92° East  Level FlightAware Approximate
Tue 12:17:48 PM 33.6000 -84.1036 90° East 303 349 9,600  Level Atlanta Center
Tue 12:18:00 PM 33.6345 -83.7803 90° East  Level Estimated
Tue 12:18:48 PM 33.6022 -84.0114 88° East 312 359 11,000  Level Atlanta Center
Tue 12:19:00 PM 33.6505 -83.6518 85° East  Level Estimated
Tue 12:19:48 PM 33.6064 -83.8917 88° East 329 379 12,300  Level Atlanta Center
Tue 12:20:48 PM 33.6103 -83.7669 88° East 359 413 15,000 2,300 Climbing Atlanta Center
Tue 12:21:48 PM 33.6161 -83.6397 87° East 366 421 16,900 1,650 Climbing Atlanta Center
Tue 12:22:48 PM 33.6283 -83.5125 83° East 381 438 18,300 1,550 Climbing Atlanta Center
Tue 12:23:48 PM 33.6442 -83.3775 82° East 397 457 20,000 1,500 Climbing Atlanta Center
Tue 12:24:48 PM 33.6622 -83.2453 81° East 402 463 21,300 1,250 Climbing Atlanta Center
Tue 12:25:48 PM 33.6781 -83.1053 82° East 415 478 22,500 850 Climbing Atlanta Center
Tue 12:26:48 PM 33.7017 -82.9450 80° East 424 488 23,000 250 Climbing Atlanta Center
Tue 12:27:48 PM 33.7233 -82.7975 80° East 449 517 23,000  Level Atlanta Center
Tue 12:28:48 PM 33.7467 -82.6497 79° East 449 517 23,000  Level Atlanta Center
Tue 12:29:48 PM 33.7617 -82.4994 83° East 449 517 23,000 -1,350 Level Atlanta Center
Tue 12:30:48 PM 33.7681 -82.3544 87° East 444 511 20,300 -2,593 Descending Atlanta Center
Tue 12:32:30 PM 33.7797 -82.1331 86° East 427 491 16,000 -2,630 Descending Jacksonville Center
Tue 12:33:30 PM 33.7811 -82.0031 89° East 403 464 13,200 -2,450 Descending Jacksonville Center
Tue 12:34:30 PM 33.7800 -81.8756 91° East 387 445 11,100 -1,100 Descending Jacksonville Center
Tue 12:35:30 PM 33.7811 -81.7581 89° East 367 422 11,000 -50 Descending Jacksonville Center
Tue 12:36:30 PM 33.7864 -81.6481 87° East 345 397 11,000 -550 Level Jacksonville Center
Tue 12:37:30 PM 33.7875 -81.5456 89° East 319 367 9,900 -1,388 Descending Jacksonville Center
Tue 12:38:31 PM 33.7883 -81.4456 89° East 302 348 8,200 -2,100 Descending Jacksonville Center
Tue 12:39:30 PM 33.8442 -81.3797 44° Northeast 269 310 5,700 -2,471 Descending Jacksonville Center
Tue 12:40:30 PM 33.9133 -81.4061 342° North 207 238 3,300 -1,400 Descending Jacksonville Center
Tue 12:41:30 PM 33.9717 -81.4200 349° North 198 228 2,900 -200 Descending Jacksonville Center
Tue 12:42:30 PM 33.9919 -81.3622 67° East 164 189 2,900  Level Jacksonville Center
Tue 12:43:30 PM 33.9786 -81.3022 105° East 141 162 2,900  Level Jacksonville Center

Login

Don't have an account? Register now (free) for customized features, flight alerts, and more!